sensor_id;sensor_type;location;lat;lon;timestamp;temperature;humidity
11126;DHT22;5617;54.046;10.676;2022-09-03T00:01:45;16.70;93.60
11126;DHT22;5617;54.046;10.676;2022-09-03T00:04:01;16.70;93.60
11126;DHT22;5617;54.046;10.676;2022-09-03T00:06:12;16.60;93.50
11126;DHT22;5617;54.046;10.676;2022-09-03T00:08:26;16.70;93.50
11126;DHT22;5617;54.046;10.676;2022-09-03T00:10:42;16.70;93.50
11126;DHT22;5617;54.046;10.676;2022-09-03T00:12:53;16.60;93.40
11126;DHT22;5617;54.046;10.676;2022-09-03T00:15:07;16.70;93.50
11126;DHT22;5617;54.046;10.676;2022-09-03T00:17:23;16.60;93.40
11126;DHT22;5617;54.046;10.676;2022-09-03T00:19:35;16.60;93.50
11126;DHT22;5617;54.046;10.676;2022-09-03T00:21:45;16.60;93.50
11126;DHT22;5617;54.046;10.676;2022-09-03T00:23:54;16.60;93.50
11126;DHT22;5617;54.046;10.676;2022-09-03T00:26:13;16.60;93.50
11126;DHT22;5617;54.046;10.676;2022-09-03T00:28:30;16.60;93.40
11126;DHT22;5617;54.046;10.676;2022-09-03T00:30:41;16.60;93.40
11126;DHT22;5617;54.046;10.676;2022-09-03T00:32:55;16.60;93.80
11126;DHT22;5617;54.046;10.676;2022-09-03T00:35:07;16.60;93.50
11126;DHT22;5617;54.046;10.676;2022-09-03T00:37:17;16.60;93.50
11126;DHT22;5617;54.046;10.676;2022-09-03T00:39:27;16.60;93.60
11126;DHT22;5617;54.046;10.676;2022-09-03T00:41:36;16.60;93.60
11126;DHT22;5617;54.046;10.676;2022-09-03T00:44:01;16.50;93.50
11126;DHT22;5617;54.046;10.676;2022-09-03T00:46:18;16.60;93.60
11126;DHT22;5617;54.046;10.676;2022-09-03T00:48:32;16.60;93.60
11126;DHT22;5617;54.046;10.676;2022-09-03T00:50:56;16.60;93.60
11126;DHT22;5617;54.046;10.676;2022-09-03T00:53:12;16.50;93.60
11126;DHT22;5617;54.046;10.676;2022-09-03T00:55:31;16.50;93.60
11126;DHT22;5617;54.046;10.676;2022-09-03T00:57:51;16.50;93.60
11126;DHT22;5617;54.046;10.676;2022-09-03T01:00:07;16.50;93.60
11126;DHT22;5617;54.046;10.676;2022-09-03T01:02:21;16.50;93.60
11126;DHT22;5617;54.046;10.676;2022-09-03T01:04:46;16.50;93.60
11126;DHT22;5617;54.046;10.676;2022-09-03T01:07:04;16.40;93.70
11126;DHT22;5617;54.046;10.676;2022-09-03T01:09:26;16.40;93.70
11126;DHT22;5617;54.046;10.676;2022-09-03T01:11:42;16.40;93.60
11126;DHT22;5617;54.046;10.676;2022-09-03T01:13:59;16.40;93.60
11126;DHT22;5617;54.046;10.676;2022-09-03T01:16:23;16.40;93.70
11126;DHT22;5617;54.046;10.676;2022-09-03T01:18:42;16.40;94.00
11126;DHT22;5617;54.046;10.676;2022-09-03T01:21:24;16.40;93.70
11126;DHT22;5617;54.046;10.676;2022-09-03T01:26:40;16.40;93.70
11126;DHT22;5617;54.046;10.676;2022-09-03T01:29:02;16.40;93.70
11126;DHT22;5617;54.046;10.676;2022-09-03T01:31:20;16.50;93.70
11126;DHT22;5617;54.046;10.676;2022-09-03T01:33:33;16.40;94.00
11126;DHT22;5617;54.046;10.676;2022-09-03T01:35:47;16.30;93.70
11126;DHT22;5617;54.046;10.676;2022-09-03T01:38:04;16.40;93.70
11126;DHT22;5617;54.046;10.676;2022-09-03T01:40:20;16.40;93.80
11126;DHT22;5617;54.046;10.676;2022-09-03T01:42:43;16.40;93.70
11126;DHT22;5617;54.046;10.676;2022-09-03T01:45:06;16.40;93.80
11126;DHT22;5617;54.046;10.676;2022-09-03T01:47:20;16.30;93.80
11126;DHT22;5617;54.046;10.676;2022-09-03T01:49:36;16.30;93.80
11126;DHT22;5617;54.046;10.676;2022-09-03T01:51:48;16.40;93.80
11126;DHT22;5617;54.046;10.676;2022-09-03T01:54:31;16.30;93.80
11126;DHT22;5617;54.046;10.676;2022-09-03T01:57:04;16.30;93.80
11126;DHT22;5617;54.046;10.676;2022-09-03T01:59:21;16.30;94.10
11126;DHT22;5617;54.046;10.676;2022-09-03T02:01:35;16.40;94.20
11126;DHT22;5617;54.046;10.676;2022-09-03T02:03:45;16.30;93.80
11126;DHT22;5617;54.046;10.676;2022-09-03T02:05:54;16.30;93.80
11126;DHT22;5617;54.046;10.676;2022-09-03T02:08:06;16.30;93.70
11126;DHT22;5617;54.046;10.676;2022-09-03T02:10:17;16.30;93.70
11126;DHT22;5617;54.046;10.676;2022-09-03T02:12:24;16.30;93.70
11126;DHT22;5617;54.046;10.676;2022-09-03T02:14:33;16.40;93.70
11126;DHT22;5617;54.046;10.676;2022-09-03T02:16:43;16.40;93.70
11126;DHT22;5617;54.046;10.676;2022-09-03T02:18:54;16.40;93.60
11126;DHT22;5617;54.046;10.676;2022-09-03T02:21:03;16.40;93.60
11126;DHT22;5617;54.046;10.676;2022-09-03T02:23:13;16.40;93.60
11126;DHT22;5617;54.046;10.676;2022-09-03T02:25:25;16.40;93.60
11126;DHT22;5617;54.046;10.676;2022-09-03T02:27:35;16.40;93.50
11126;DHT22;5617;54.046;10.676;2022-09-03T02:29:43;16.50;93.50
11126;DHT22;5617;54.046;10.676;2022-09-03T02:31:53;16.40;93.40
11126;DHT22;5617;54.046;10.676;2022-09-03T02:34:00;16.50;93.40
11126;DHT22;5617;54.046;10.676;2022-09-03T02:36:10;16.50;93.40
11126;DHT22;5617;54.046;10.676;2022-09-03T02:38:20;16.50;93.40
11126;DHT22;5617;54.046;10.676;2022-09-03T02:40:28;16.60;93.30
11126;DHT22;5617;54.046;10.676;2022-09-03T02:42:35;16.50;93.30
11126;DHT22;5617;54.046;10.676;2022-09-03T02:44:47;16.50;93.20
11126;DHT22;5617;54.046;10.676;2022-09-03T02:46:58;16.50;93.20
11126;DHT22;5617;54.046;10.676;2022-09-03T02:49:06;16.50;93.20
11126;DHT22;5617;54.046;10.676;2022-09-03T02:51:14;16.60;93.10
11126;DHT22;5617;54.046;10.676;2022-09-03T02:53:24;16.60;93.10
11126;DHT22;5617;54.046;10.676;2022-09-03T02:55:34;16.60;93.10
11126;DHT22;5617;54.046;10.676;2022-09-03T02:57:42;16.60;93.00
11126;DHT22;5617;54.046;10.676;2022-09-03T02:59:50;16.60;93.30
11126;DHT22;5617;54.046;10.676;2022-09-03T03:02:00;16.60;92.90
11126;DHT22;5617;54.046;10.676;2022-09-03T03:04:08;16.60;92.90
11126;DHT22;5617;54.046;10.676;2022-09-03T03:06:15;16.60;92.80
11126;DHT22;5617;54.046;10.676;2022-09-03T03:08:27;16.60;92.80
11126;DHT22;5617;54.046;10.676;2022-09-03T03:10:35;16.60;92.80
11126;DHT22;5617;54.046;10.676;2022-09-03T03:12:43;16.60;92.80
11126;DHT22;5617;54.046;10.676;2022-09-03T03:14:51;16.60;92.80
11126;DHT22;5617;54.046;10.676;2022-09-03T03:17:00;16.60;92.70
11126;DHT22;5617;54.046;10.676;2022-09-03T03:19:07;16.60;92.70
11126;DHT22;5617;54.046;10.676;2022-09-03T03:21:17;16.70;92.70
11126;DHT22;5617;54.046;10.676;2022-09-03T03:23:25;16.50;92.70
11126;DHT22;5617;54.046;10.676;2022-09-03T03:25:33;16.50;92.60
11126;DHT22;5617;54.046;10.676;2022-09-03T03:27:41;16.50;92.60
11126;DHT22;5617;54.046;10.676;2022-09-03T03:29:51;16.50;92.60
11126;DHT22;5617;54.046;10.676;2022-09-03T03:32:01;16.50;92.50
11126;DHT22;5617;54.046;10.676;2022-09-03T03:34:09;16.50;92.50
11126;DHT22;5617;54.046;10.676;2022-09-03T03:36:17;16.40;92.50
11126;DHT22;5617;54.046;10.676;2022-09-03T03:38:24;16.40;92.40
11126;DHT22;5617;54.046;10.676;2022-09-03T03:40:32;16.40;92.50
11126;DHT22;5617;54.046;10.676;2022-09-03T03:42:41;16.40;92.40
11126;DHT22;5617;54.046;10.676;2022-09-03T03:44:49;16.40;92.50
11126;DHT22;5617;54.046;10.676;2022-09-03T03:46:57;16.30;92.40
11126;DHT22;5617;54.046;10.676;2022-09-03T03:49:06;16.30;92.50
11126;DHT22;5617;54.046;10.676;2022-09-03T03:51:18;16.30;92.50
11126;DHT22;5617;54.046;10.676;2022-09-03T03:53:25;16.30;92.40
11126;DHT22;5617;54.046;10.676;2022-09-03T03:55:33;16.30;92.40
11126;DHT22;5617;54.046;10.676;2022-09-03T03:57:44;16.30;92.40
11126;DHT22;5617;54.046;10.676;2022-09-03T03:59:51;16.30;92.40
11126;DHT22;5617;54.046;10.676;2022-09-03T04:01:59;16.20;92.40
11126;DHT22;5617;54.046;10.676;2022-09-03T04:04:08;16.20;92.30
11126;DHT22;5617;54.046;10.676;2022-09-03T04:06:18;16.20;92.30
11126;DHT22;5617;54.046;10.676;2022-09-03T04:08:26;16.20;92.30
11126;DHT22;5617;54.046;10.676;2022-09-03T04:10:35;16.20;92.30
11126;DHT22;5617;54.046;10.676;2022-09-03T04:12:43;16.20;92.30
11126;DHT22;5617;54.046;10.676;2022-09-03T04:14:50;16.20;92.30
11126;DHT22;5617;54.046;10.676;2022-09-03T04:16:58;16.20;92.30
11126;DHT22;5617;54.046;10.676;2022-09-03T04:19:05;16.20;92.30
11126;DHT22;5617;54.046;10.676;2022-09-03T04:21:16;16.30;92.30
11126;DHT22;5617;54.046;10.676;2022-09-03T04:23:24;16.20;92.30
11126;DHT22;5617;54.046;10.676;2022-09-03T04:25:35;16.20;92.30
11126;DHT22;5617;54.046;10.676;2022-09-03T04:27:42;16.10;92.30
11126;DHT22;5617;54.046;10.676;2022-09-03T04:29:50;16.10;92.30
11126;DHT22;5617;54.046;10.676;2022-09-03T04:32:00;16.10;92.30
11126;DHT22;5617;54.046;10.676;2022-09-03T04:34:28;16.10;92.40
11126;DHT22;5617;54.046;10.676;2022-09-03T04:36:40;16.00;92.40
11126;DHT22;5617;54.046;10.676;2022-09-03T04:38:49;16.00;92.40
11126;DHT22;5617;54.046;10.676;2022-09-03T04:40:57;16.00;92.50
11126;DHT22;5617;54.046;10.676;2022-09-03T04:43:05;16.00;92.40
11126;DHT22;5617;54.046;10.676;2022-09-03T04:45:13;16.00;92.40
11126;DHT22;5617;54.046;10.676;2022-09-03T04:47:23;16.00;92.50
11126;DHT22;5617;54.046;10.676;2022-09-03T04:49:33;16.00;92.50
11126;DHT22;5617;54.046;10.676;2022-09-03T04:51:42;15.90;92.60
11126;DHT22;5617;54.046;10.676;2022-09-03T04:53:55;15.90;92.70
11126;DHT22;5617;54.046;10.676;2022-09-03T04:56:11;16.00;92.70
11126;DHT22;5617;54.046;10.676;2022-09-03T04:58:19;15.90;92.70
11126;DHT22;5617;54.046;10.676;2022-09-03T05:00:27;15.90;93.10
11126;DHT22;5617;54.046;10.676;2022-09-03T05:02:35;15.80;92.80
11126;DHT22;5617;54.046;10.676;2022-09-03T05:04:42;15.80;92.80
11126;DHT22;5617;54.046;10.676;2022-09-03T05:06:51;15.80;92.90
11126;DHT22;5617;54.046;10.676;2022-09-03T05:08:59;15.70;92.80
11126;DHT22;5617;54.046;10.676;2022-09-03T05:11:07;15.70;92.90
11126;DHT22;5617;54.046;10.676;2022-09-03T05:13:17;15.70;92.80
11126;DHT22;5617;54.046;10.676;2022-09-03T05:15:25;15.80;93.00
11126;DHT22;5617;54.046;10.676;2022-09-03T05:17:33;15.80;92.90
11126;DHT22;5617;54.046;10.676;2022-09-03T05:19:43;15.80;93.20
11126;DHT22;5617;54.046;10.676;2022-09-03T05:21:52;15.80;92.90
11126;DHT22;5617;54.046;10.676;2022-09-03T05:24:00;15.80;92.90
11126;DHT22;5617;54.046;10.676;2022-09-03T05:26:09;15.80;92.90
11126;DHT22;5617;54.046;10.676;2022-09-03T05:28:17;15.80;93.00
11126;DHT22;5617;54.046;10.676;2022-09-03T05:30:25;15.90;93.00
11126;DHT22;5617;54.046;10.676;2022-09-03T05:32:32;15.90;93.00
11126;DHT22;5617;54.046;10.676;2022-09-03T05:34:40;16.00;92.90
11126;DHT22;5617;54.046;10.676;2022-09-03T05:36:47;16.00;92.90
11126;DHT22;5617;54.046;10.676;2022-09-03T05:38:57;16.10;92.90
11126;DHT22;5617;54.046;10.676;2022-09-03T05:41:06;16.10;92.90
11126;DHT22;5617;54.046;10.676;2022-09-03T05:43:14;16.10;92.90
11126;DHT22;5617;54.046;10.676;2022-09-03T05:45:22;16.10;92.90
11126;DHT22;5617;54.046;10.676;2022-09-03T05:47:30;16.10;92.90
11126;DHT22;5617;54.046;10.676;2022-09-03T05:49:37;16.10;92.90
11126;DHT22;5617;54.046;10.676;2022-09-03T05:51:45;16.10;92.80
11126;DHT22;5617;54.046;10.676;2022-09-03T05:53:53;16.00;92.80
11126;DHT22;5617;54.046;10.676;2022-09-03T05:56:04;16.00;92.80
11126;DHT22;5617;54.046;10.676;2022-09-03T05:58:13;16.00;92.80
11126;DHT22;5617;54.046;10.676;2022-09-03T06:00:20;16.00;92.80
11126;DHT22;5617;54.046;10.676;2022-09-03T06:02:28;16.10;92.70
11126;DHT22;5617;54.046;10.676;2022-09-03T06:04:36;16.10;92.70
11126;DHT22;5617;54.046;10.676;2022-09-03T06:06:45;16.20;92.80
11126;DHT22;5617;54.046;10.676;2022-09-03T06:08:55;16.20;92.70
11126;DHT22;5617;54.046;10.676;2022-09-03T06:11:05;16.30;92.80
11126;DHT22;5617;54.046;10.676;2022-09-03T06:13:18;16.30;92.70
11126;DHT22;5617;54.046;10.676;2022-09-03T06:15:26;16.30;92.50
11126;DHT22;5617;54.046;10.676;2022-09-03T06:17:33;16.40;92.60
11126;DHT22;5617;54.046;10.676;2022-09-03T06:19:41;16.30;92.50
11126;DHT22;5617;54.046;10.676;2022-09-03T06:21:48;16.30;92.50
11126;DHT22;5617;54.046;10.676;2022-09-03T06:23:57;16.40;92.90
11126;DHT22;5617;54.046;10.676;2022-09-03T06:26:08;16.50;92.60
11126;DHT22;5617;54.046;10.676;2022-09-03T06:28:16;16.60;92.60
11126;DHT22;5617;54.046;10.676;2022-09-03T06:30:23;16.70;92.40
11126;DHT22;5617;54.046;10.676;2022-09-03T06:32:32;16.90;92.20
11126;DHT22;5617;54.046;10.676;2022-09-03T06:34:40;17.00;92.00
11126;DHT22;5617;54.046;10.676;2022-09-03T06:36:47;17.10;92.00
11126;DHT22;5617;54.046;10.676;2022-09-03T06:38:58;17.30;91.80
11126;DHT22;5617;54.046;10.676;2022-09-03T06:41:13;17.40;91.60
11126;DHT22;5617;54.046;10.676;2022-09-03T06:43:26;17.50;91.60
11126;DHT22;5617;54.046;10.676;2022-09-03T06:45:37;17.60;91.50
11126;DHT22;5617;54.046;10.676;2022-09-03T06:47:45;17.80;91.40
11126;DHT22;5617;54.046;10.676;2022-09-03T06:49:52;17.90;91.30
11126;DHT22;5617;54.046;10.676;2022-09-03T06:52:00;18.00;91.20
11126;DHT22;5617;54.046;10.676;2022-09-03T06:54:10;18.10;91.20
11126;DHT22;5617;54.046;10.676;2022-09-03T06:56:22;18.20;91.00
11126;DHT22;5617;54.046;10.676;2022-09-03T06:58:34;18.30;90.90
11126;DHT22;5617;54.046;10.676;2022-09-03T07:00:43;18.30;90.60
11126;DHT22;5617;54.046;10.676;2022-09-03T07:02:55;18.40;90.50
11126;DHT22;5617;54.046;10.676;2022-09-03T07:05:07;18.50;90.30
11126;DHT22;5617;54.046;10.676;2022-09-03T07:07:15;18.50;90.30
11126;DHT22;5617;54.046;10.676;2022-09-03T07:09:23;18.70;90.20
11126;DHT22;5617;54.046;10.676;2022-09-03T07:11:33;18.70;90.10
11126;DHT22;5617;54.046;10.676;2022-09-03T07:13:44;18.80;90.10
11126;DHT22;5617;54.046;10.676;2022-09-03T07:15:59;18.80;90.00
11126;DHT22;5617;54.046;10.676;2022-09-03T07:18:08;18.90;89.40
11126;DHT22;5617;54.046;10.676;2022-09-03T07:20:15;18.90;89.10
11126;DHT22;5617;54.046;10.676;2022-09-03T07:22:23;19.00;88.90
11126;DHT22;5617;54.046;10.676;2022-09-03T07:24:30;19.20;88.60
11126;DHT22;5617;54.046;10.676;2022-09-03T07:26:41;19.30;88.20
11126;DHT22;5617;54.046;10.676;2022-09-03T07:28:50;19.40;88.20
11126;DHT22;5617;54.046;10.676;2022-09-03T07:31:01;19.50;87.80
11126;DHT22;5617;54.046;10.676;2022-09-03T07:33:13;19.50;87.20
11126;DHT22;5617;54.046;10.676;2022-09-03T07:35:27;19.60;86.90
11126;DHT22;5617;54.046;10.676;2022-09-03T07:37:35;19.80;87.00
11126;DHT22;5617;54.046;10.676;2022-09-03T07:39:43;19.90;87.60
11126;DHT22;5617;54.046;10.676;2022-09-03T07:41:53;19.90;86.50
11126;DHT22;5617;54.046;10.676;2022-09-03T07:44:01;20.10;86.80
11126;DHT22;5617;54.046;10.676;2022-09-03T07:46:11;20.20;86.50
11126;DHT22;5617;54.046;10.676;2022-09-03T07:48:19;20.30;86.60
11126;DHT22;5617;54.046;10.676;2022-09-03T07:50:26;20.40;86.10
11126;DHT22;5617;54.046;10.676;2022-09-03T07:52:35;20.50;85.50
11126;DHT22;5617;54.046;10.676;2022-09-03T07:54:43;20.50;85.50
11126;DHT22;5617;54.046;10.676;2022-09-03T07:56:50;20.60;85.50
11126;DHT22;5617;54.046;10.676;2022-09-03T07:58:59;20.80;85.90
11126;DHT22;5617;54.046;10.676;2022-09-03T08:01:09;20.90;86.00
11126;DHT22;5617;54.046;10.676;2022-09-03T08:03:17;20.90;86.60
11126;DHT22;5617;54.046;10.676;2022-09-03T08:05:25;20.80;85.90
11126;DHT22;5617;54.046;10.676;2022-09-03T08:07:34;20.70;85.70
11126;DHT22;5617;54.046;10.676;2022-09-03T08:09:42;20.70;85.30
11126;DHT22;5617;54.046;10.676;2022-09-03T08:11:50;20.70;85.10
11126;DHT22;5617;54.046;10.676;2022-09-03T08:14:00;20.80;85.20
11126;DHT22;5617;54.046;10.676;2022-09-03T08:16:08;20.80;85.30
11126;DHT22;5617;54.046;10.676;2022-09-03T08:18:16;20.70;85.10
11126;DHT22;5617;54.046;10.676;2022-09-03T08:20:25;20.70;85.40
11126;DHT22;5617;54.046;10.676;2022-09-03T08:22:33;20.90;85.60
11126;DHT22;5617;54.046;10.676;2022-09-03T08:24:40;20.80;85.40
11126;DHT22;5617;54.046;10.676;2022-09-03T08:26:48;20.70;85.10
11126;DHT22;5617;54.046;10.676;2022-09-03T08:28:56;20.70;84.60
11126;DHT22;5617;54.046;10.676;2022-09-03T08:31:06;20.80;84.80
11126;DHT22;5617;54.046;10.676;2022-09-03T08:33:15;20.90;84.40
11126;DHT22;5617;54.046;10.676;2022-09-03T08:35:42;21.00;83.80
11126;DHT22;5617;54.046;10.676;2022-09-03T08:37:59;21.10;83.60
11126;DHT22;5617;54.046;10.676;2022-09-03T08:40:12;21.20;83.60
11126;DHT22;5617;54.046;10.676;2022-09-03T08:42:40;21.10;83.60
11126;DHT22;5617;54.046;10.676;2022-09-03T08:44:55;21.10;83.60
11126;DHT22;5617;54.046;10.676;2022-09-03T08:47:09;21.00;83.40
11126;DHT22;5617;54.046;10.676;2022-09-03T08:49:22;21.10;83.40
11126;DHT22;5617;54.046;10.676;2022-09-03T08:51:31;21.20;83.90
11126;DHT22;5617;54.046;10.676;2022-09-03T08:53:48;21.40;83.50
11126;DHT22;5617;54.046;10.676;2022-09-03T08:56:06;21.50;82.70
11126;DHT22;5617;54.046;10.676;2022-09-03T08:58:16;21.60;82.00
11126;DHT22;5617;54.046;10.676;2022-09-03T09:00:33;21.70;81.80
11126;DHT22;5617;54.046;10.676;2022-09-03T09:02:57;21.90;81.70
11126;DHT22;5617;54.046;10.676;2022-09-03T09:05:11;22.10;81.40
11126;DHT22;5617;54.046;10.676;2022-09-03T09:07:24;22.30;80.90
11126;DHT22;5617;54.046;10.676;2022-09-03T09:09:43;22.30;80.30
11126;DHT22;5617;54.046;10.676;2022-09-03T09:12:05;22.50;80.50
11126;DHT22;5617;54.046;10.676;2022-09-03T09:14:28;22.60;80.00
11126;DHT22;5617;54.046;10.676;2022-09-03T09:16:44;22.70;79.30
11126;DHT22;5617;54.046;10.676;2022-09-03T09:19:08;22.70;78.90
11126;DHT22;5617;54.046;10.676;2022-09-03T09:21:25;22.80;78.10
11126;DHT22;5617;54.046;10.676;2022-09-03T09:23:39;22.90;78.00
11126;DHT22;5617;54.046;10.676;2022-09-03T09:25:49;22.70;77.30
11126;DHT22;5617;54.046;10.676;2022-09-03T09:28:00;22.80;77.60
11126;DHT22;5617;54.046;10.676;2022-09-03T09:30:09;22.70;77.20
11126;DHT22;5617;54.046;10.676;2022-09-03T09:32:19;22.70;76.70
11126;DHT22;5617;54.046;10.676;2022-09-03T09:34:37;22.50;76.50
11126;DHT22;5617;54.046;10.676;2022-09-03T09:36:49;22.40;76.20
11126;DHT22;5617;54.046;10.676;2022-09-03T09:39:07;22.30;76.50
11126;DHT22;5617;54.046;10.676;2022-09-03T09:41:16;22.30;76.90
11126;DHT22;5617;54.046;10.676;2022-09-03T09:43:25;22.40;76.80
11126;DHT22;5617;54.046;10.676;2022-09-03T09:45:36;22.40;76.80
11126;DHT22;5617;54.046;10.676;2022-09-03T09:47:47;22.40;77.30
11126;DHT22;5617;54.046;10.676;2022-09-03T09:50:00;22.50;76.70
11126;DHT22;5617;54.046;10.676;2022-09-03T09:52:09;22.50;76.80
11126;DHT22;5617;54.046;10.676;2022-09-03T09:54:24;22.50;76.50
11126;DHT22;5617;54.046;10.676;2022-09-03T09:56:33;22.70;76.20
11126;DHT22;5617;54.046;10.676;2022-09-03T09:58:42;22.70;75.00
11126;DHT22;5617;54.046;10.676;2022-09-03T10:01:00;22.80;74.70
11126;DHT22;5617;54.046;10.676;2022-09-03T10:03:10;23.00;74.10
11126;DHT22;5617;54.046;10.676;2022-09-03T10:05:28;22.90;73.10
11126;DHT22;5617;54.046;10.676;2022-09-03T10:07:36;22.90;73.00
11126;DHT22;5617;54.046;10.676;2022-09-03T10:09:43;23.20;72.80
11126;DHT22;5617;54.046;10.676;2022-09-03T10:12:06;23.30;72.40
11126;DHT22;5617;54.046;10.676;2022-09-03T10:14:23;23.20;72.40
11126;DHT22;5617;54.046;10.676;2022-09-03T10:16:36;23.30;72.30
11126;DHT22;5617;54.046;10.676;2022-09-03T10:18:52;23.40;71.40
11126;DHT22;5617;54.046;10.676;2022-09-03T10:21:06;23.70;70.50
11126;DHT22;5617;54.046;10.676;2022-09-03T10:23:19;23.70;69.70
11126;DHT22;5617;54.046;10.676;2022-09-03T10:25:35;23.70;69.90
11126;DHT22;5617;54.046;10.676;2022-09-03T10:27:45;23.90;70.00
11126;DHT22;5617;54.046;10.676;2022-09-03T10:29:53;24.00;68.70
11126;DHT22;5617;54.046;10.676;2022-09-03T10:32:12;24.20;68.20
11126;DHT22;5617;54.046;10.676;2022-09-03T10:34:33;24.30;68.50
11126;DHT22;5617;54.046;10.676;2022-09-03T10:36:52;24.70;68.60
11126;DHT22;5617;54.046;10.676;2022-09-03T10:39:06;24.80;67.60
11126;DHT22;5617;54.046;10.676;2022-09-03T10:41:28;24.60;67.00
11126;DHT22;5617;54.046;10.676;2022-09-03T10:43:57;24.50;66.20
11126;DHT22;5617;54.046;10.676;2022-09-03T10:46:10;24.50;65.80
11126;DHT22;5617;54.046;10.676;2022-09-03T10:48:46;24.70;65.90
11126;DHT22;5617;54.046;10.676;2022-09-03T10:50:59;24.60;64.70
11126;DHT22;5617;54.046;10.676;2022-09-03T10:53:21;24.20;65.20
11126;DHT22;5617;54.046;10.676;2022-09-03T10:55:38;24.30;65.90
11126;DHT22;5617;54.046;10.676;2022-09-03T10:57:52;24.50;65.10
11126;DHT22;5617;54.046;10.676;2022-09-03T11:00:07;24.60;64.50
11126;DHT22;5617;54.046;10.676;2022-09-03T11:02:44;24.70;63.40
11126;DHT22;5617;54.046;10.676;2022-09-03T11:04:59;24.50;62.10
11126;DHT22;5617;54.046;10.676;2022-09-03T11:07:12;24.30;62.80
11126;DHT22;5617;54.046;10.676;2022-09-03T11:09:25;24.20;63.30
11126;DHT22;5617;54.046;10.676;2022-09-03T11:11:36;23.90;63.20
11126;DHT22;5617;54.046;10.676;2022-09-03T11:13:50;23.60;63.70
11126;DHT22;5617;54.046;10.676;2022-09-03T11:16:05;23.40;64.60
11126;DHT22;5617;54.046;10.676;2022-09-03T11:18:19;23.30;64.50
11126;DHT22;5617;54.046;10.676;2022-09-03T11:20:28;23.20;64.60
11126;DHT22;5617;54.046;10.676;2022-09-03T11:22:37;23.30;65.20
11126;DHT22;5617;54.046;10.676;2022-09-03T11:24:53;23.50;64.20
11126;DHT22;5617;54.046;10.676;2022-09-03T11:27:08;23.30;63.70
11126;DHT22;5617;54.046;10.676;2022-09-03T11:29:24;23.10;64.40
11126;DHT22;5617;54.046;10.676;2022-09-03T11:31:44;23.50;63.90
11126;DHT22;5617;54.046;10.676;2022-09-03T11:33:59;23.80;63.40
11126;DHT22;5617;54.046;10.676;2022-09-03T11:36:09;23.90;63.90
11126;DHT22;5617;54.046;10.676;2022-09-03T11:38:21;23.80;63.80
11126;DHT22;5617;54.046;10.676;2022-09-03T11:40:35;23.60;63.60
11126;DHT22;5617;54.046;10.676;2022-09-03T11:42:43;23.60;63.50
11126;DHT22;5617;54.046;10.676;2022-09-03T11:44:51;23.50;63.50
11126;DHT22;5617;54.046;10.676;2022-09-03T11:47:00;23.40;63.70
11126;DHT22;5617;54.046;10.676;2022-09-03T11:49:11;23.80;64.00
11126;DHT22;5617;54.046;10.676;2022-09-03T11:51:29;24.40;63.70
11126;DHT22;5617;54.046;10.676;2022-09-03T11:53:37;24.70;63.90
11126;DHT22;5617;54.046;10.676;2022-09-03T11:55:52;25.00;62.80
11126;DHT22;5617;54.046;10.676;2022-09-03T11:58:10;25.20;61.90
11126;DHT22;5617;54.046;10.676;2022-09-03T12:00:19;25.40;57.70
11126;DHT22;5617;54.046;10.676;2022-09-03T12:02:31;25.50;58.60
11126;DHT22;5617;54.046;10.676;2022-09-03T12:04:45;25.60;59.20
11126;DHT22;5617;54.046;10.676;2022-09-03T12:07:15;25.30;59.50
11126;DHT22;5617;54.046;10.676;2022-09-03T12:09:47;24.90;59.70
11126;DHT22;5617;54.046;10.676;2022-09-03T12:12:11;24.90;60.50
11126;DHT22;5617;54.046;10.676;2022-09-03T12:14:26;25.10;60.60
11126;DHT22;5617;54.046;10.676;2022-09-03T12:19:23;25.40;60.20
11126;DHT22;5617;54.046;10.676;2022-09-03T12:21:37;25.60;60.00
11126;DHT22;5617;54.046;10.676;2022-09-03T12:23:46;25.30;59.80
11126;DHT22;5617;54.046;10.676;2022-09-03T12:25:55;25.10;59.10
11126;DHT22;5617;54.046;10.676;2022-09-03T12:28:10;24.90;59.10
11126;DHT22;5617;54.046;10.676;2022-09-03T12:30:22;24.90;59.60
11126;DHT22;5617;54.046;10.676;2022-09-03T12:32:32;25.20;59.90
11126;DHT22;5617;54.046;10.676;2022-09-03T12:34:42;25.40;59.60
11126;DHT22;5617;54.046;10.676;2022-09-03T12:36:51;25.50;59.10
11126;DHT22;5617;54.046;10.676;2022-09-03T12:39:07;25.60;58.50
11126;DHT22;5617;54.046;10.676;2022-09-03T12:41:26;25.60;57.50
11126;DHT22;5617;54.046;10.676;2022-09-03T12:43:35;25.60;57.90
11126;DHT22;5617;54.046;10.676;2022-09-03T12:45:43;25.50;59.30
11126;DHT22;5617;54.046;10.676;2022-09-03T12:47:52;25.70;60.50
11126;DHT22;5617;54.046;10.676;2022-09-03T12:50:06;26.00;61.00
11126;DHT22;5617;54.046;10.676;2022-09-03T12:52:17;25.70;60.20
11126;DHT22;5617;54.046;10.676;2022-09-03T12:54:26;25.60;59.50
11126;DHT22;5617;54.046;10.676;2022-09-03T12:56:34;25.50;59.00
11126;DHT22;5617;54.046;10.676;2022-09-03T12:58:49;25.30;58.20
11126;DHT22;5617;54.046;10.676;2022-09-03T13:01:05;25.20;58.10
11126;DHT22;5617;54.046;10.676;2022-09-03T13:03:17;25.00;58.00
11126;DHT22;5617;54.046;10.676;2022-09-03T13:05:31;25.00;58.40
11126;DHT22;5617;54.046;10.676;2022-09-03T13:07:39;25.20;58.90
11126;DHT22;5617;54.046;10.676;2022-09-03T13:09:47;25.40;59.30
11126;DHT22;5617;54.046;10.676;2022-09-03T13:12:00;25.60;59.00
11126;DHT22;5617;54.046;10.676;2022-09-03T13:14:13;25.80;58.70
11126;DHT22;5617;54.046;10.676;2022-09-03T13:16:37;25.80;57.70
11126;DHT22;5617;54.046;10.676;2022-09-03T13:18:52;25.80;57.60
11126;DHT22;5617;54.046;10.676;2022-09-03T13:21:09;25.30;57.20
11126;DHT22;5617;54.046;10.676;2022-09-03T13:23:42;25.10;58.00
11126;DHT22;5617;54.046;10.676;2022-09-03T13:25:57;24.70;58.40
11126;DHT22;5617;54.046;10.676;2022-09-03T13:28:18;24.50;58.70
11126;DHT22;5617;54.046;10.676;2022-09-03T13:30:40;24.80;59.20
11126;DHT22;5617;54.046;10.676;2022-09-03T13:33:00;24.50;60.00
11126;DHT22;5617;54.046;10.676;2022-09-03T13:35:27;24.30;61.40
11126;DHT22;5617;54.046;10.676;2022-09-03T13:37:38;24.00;62.80
11126;DHT22;5617;54.046;10.676;2022-09-03T13:39:48;23.80;63.20
11126;DHT22;5617;54.046;10.676;2022-09-03T13:42:05;23.60;63.00
11126;DHT22;5617;54.046;10.676;2022-09-03T13:44:17;23.60;62.90
11126;DHT22;5617;54.046;10.676;2022-09-03T13:46:32;23.60;63.70
11126;DHT22;5617;54.046;10.676;2022-09-03T13:48:44;23.70;64.30
11126;DHT22;5617;54.046;10.676;2022-09-03T13:51:14;24.00;63.90
11126;DHT22;5617;54.046;10.676;2022-09-03T13:53:30;24.20;63.60
11126;DHT22;5617;54.046;10.676;2022-09-03T13:55:44;24.20;64.10
11126;DHT22;5617;54.046;10.676;2022-09-03T13:58:00;24.20;64.40
11126;DHT22;5617;54.046;10.676;2022-09-03T14:00:10;24.20;63.80
11126;DHT22;5617;54.046;10.676;2022-09-03T14:02:27;24.10;64.50